ホーチミン の空港の天気 - METARとTAF

タンソンニャット国際空港 (ホーチミン) ( VVTS / SGN ) - ベトナム ホーチミン市
飛行場実況気象(Metar)
観測時間10/19 06:30 ICT (10/18 23:30 UTC)
風向・風速北北西 3m/s
視程8000m
天気現象
全天の4割程度の雲 雲底高度 460m
全天の8割程度の雲 雲底高度 1220m
気温25℃
湿度100%
気圧1009hPa
METARVVTS 182330Z 34005KT 8000 SCT015 BKN040 25/25 Q1009 NOSIG
過去の天気等 Google飛行場航空写真 Wunderground天気予報

過去48時間のMETAR

飛行場予報(TAF)
発表時間: 10/19 06:00 ICT (10/18 23:00 UTC)
予報対象時間: 19日7時 ICT ~ 20日13時 ICT
風向・風速北北西 3m/s
視程10km以上
全天の4割程度の雲 雲底高度 520m
全天の4割程度の雲 雲底高度 1,220m
19日12時 ICT ~ 19日16時 ICT に一時的に
視程3,000m
天気現象雷雨
全天の4割程度の雲 雲底高度 460m
少しの積乱雲 雲底高度 520m
19日20時 ICT ~ 19日24時 ICT に一時的に
風向・風速北 8m/s 瞬間風速 15m/s
視程1,000m
天気現象強い雷雨
全天の8割程度の雲 雲底高度 400m
全天の4割程度の積乱雲 雲底高度 460m
全天の8割程度の雲 雲底高度 1,220m
TAF VVTS 182300Z 1900/2006 34006KT 9999 SCT017 SCT040
TEMPO 1905/1909 3000 TSRA SCT015 FEW017CB
TEMPO 1913/1917 36015G30KT 1000 +TSRA BKN013 SCT015CB BKN040